New Vibes — FAA9849 — position and weather

sailwx.info

Track history (hours):
 
Tides and Currents Weather Stations Pressure Air Temp Water Temp Dewpoint Dewpoint Depression Visibility Wind Speed Wind Dir Waves Ship Positions

New Vibes

Last reported at 2017-Nov-12 14:58 UTC. Time now 2017-Nov-21 12:13 UTC.
Position N 47°36' W 002°52'.
Warning: this ship's position is 8 days out of date.

Length 12 m.

Type: Sailing vessel. MMSI: 227176580.

Date/timePositionNaut miles runAvg speedWind from/ knotsBaromVisibWave heightAir tempDewpointWater temp
2017-Nov-12 14:58N 47°36' W 002°52'0 0.2
2017-Nov-12 14:27N 47°36' W 002°52'0 0.0
2017-Nov-12 14:00N 47°36' W 002°52'0 0.3
2017-Nov-12 13:30N 47°36' W 002°51'2 4.4
2017-Nov-12 13:00N 47°37' W 002°48'1 2.7
2017-Nov-12 12:30N 47°36' W 002°50'2 3.3
2017-Nov-12 12:00N 47°34' W 002°49'2 3.9
2017-Nov-12 11:25N 47°34' W 002°52'0 0.2
2017-Nov-12 10:56N 47°34' W 002°52'1 2.1
2017-Nov-12 10:30N 47°34' W 002°53'2 3.0
2017-Nov-12 10:00N 47°36' W 002°51'0 0.4
2017-Nov-12 08:43N 47°36' W 002°52'  
2017-Nov-05 14:37N 47°36' W 002°52'0 0.1
2017-Nov-05 14:27N 47°36' W 002°52'  
Track history (hours):
 
Tides and Currents Weather Stations Pressure Air Temp Water Temp Dewpoint Dewpoint Depression Visibility Wind Speed Wind Dir Waves Ship Positions

New Vibes

Last reported at 2017-Nov-12 14:58 UTC. Time now 2017-Nov-21 12:13 UTC.
Position N 47°36' W 002°52'.
Warning: this ship's position is 8 days out of date.

Length 12 m.

Type: Sailing vessel. MMSI: 227176580.

Date/timePositionNaut miles runAvg speedWind from/ knotsBaromVisibWave heightAir tempDewpointWater temp
2017-Nov-12 14:58N 47°36' W 002°52'0 0.2
2017-Nov-12 14:27N 47°36' W 002°52'0 0.0
2017-Nov-12 14:00N 47°36' W 002°52'0 0.3
2017-Nov-12 13:30N 47°36' W 002°51'2 4.4
2017-Nov-12 13:00N 47°37' W 002°48'1 2.7
2017-Nov-12 12:30N 47°36' W 002°50'2 3.3
2017-Nov-12 12:00N 47°34' W 002°49'2 3.9
2017-Nov-12 11:25N 47°34' W 002°52'0 0.2
2017-Nov-12 10:56N 47°34' W 002°52'1 2.1
2017-Nov-12 10:30N 47°34' W 002°53'2 3.0
2017-Nov-12 10:00N 47°36' W 002°51'0 0.4
2017-Nov-12 08:43N 47°36' W 002°52'  
2017-Nov-05 14:37N 47°36' W 002°52'0 0.1
2017-Nov-05 14:27N 47°36' W 002°52'  

Dump ship's entire track history